Time;durP1;ratioP1;P1;durP2;ratioP2;P2;SDS_P1;SDS_P2;PMS_P1;PMS_P2;Temp;Humidity;BMP_temperature;BMP_pressure;BME280_temperature;BME280_humidity;BME280_pressure;Samples;Min_cycle;Max_cycle;Signal;HPM_P1;HPM_P2
2023/07/04 00:02:26;;;;;;;5.28;1.50;;;;;;;10.91;100.00;100813.56;4961190;28;20102;-74
2023/07/04 00:05:12;;;;;;;4.75;1.70;;;;;;;10.90;100.00;100815.31;4962397;28;20043;-75
2023/07/04 00:08:01;;;;;;;4.25;1.38;;;;;;;10.89;100.00;100813.63;4958303;28;20498;-75
2023/07/04 00:10:53;;;;;;;4.00;1.58;;;;;;;10.90;100.00;100817.13;4937041;28;20045;-76
2023/07/04 00:13:40;;;;;;;3.03;1.67;;;;;;;10.90;100.00;100817.97;4960766;28;20071;-74
2023/07/04 00:16:25;;;;;;;3.15;1.90;;;;;;;10.90;100.00;100825.09;4961052;28;20042;-75
2023/07/04 00:19:11;;;;;;;2.00;1.50;;;;;;;10.90;100.00;100819.78;4947022;28;20165;-75
2023/07/04 00:21:59;;;;;;;3.88;1.58;;;;;;;10.89;100.00;100818.06;4959321;28;20450;-74
2023/07/04 00:24:44;;;;;;;4.40;1.50;;;;;;;10.88;100.00;100822.50;4960552;28;20066;-75
2023/07/04 00:27:32;;;;;;;2.80;1.83;;;;;;;10.89;100.00;100820.72;4960031;28;20058;-75
2023/07/04 00:30:20;;;;;;;4.20;1.67;;;;;;;10.88;100.00;100819.00;4959935;28;20048;-75
2023/07/04 00:33:05;;;;;;;2.92;1.75;;;;;;;10.86;100.00;100819.06;4960212;28;20075;-74
2023/07/04 00:36:03;;;;;;;2.45;1.70;;;;;;;10.84;100.00;100816.50;4960934;28;20651;-74
2023/07/04 00:38:55;;;;;;;2.40;1.70;;;;;;;10.83;100.00;100824.50;4960623;28;20595;-74
2023/07/04 00:41:41;;;;;;;4.53;1.75;;;;;;;10.81;100.00;100826.38;4950975;28;20620;-74
2023/07/04 00:44:34;;;;;;;3.83;1.75;;;;;;;10.83;100.00;100830.66;4960603;28;20097;-74
2023/07/04 00:47:33;;;;;;;2.83;1.73;;;;;;;10.86;100.00;100834.97;4961090;28;20050;-75
2023/07/04 00:50:29;;;;;;;1.88;1.65;;;;;;;10.89;100.00;100826.84;4959366;28;21972;-74
2023/07/04 00:53:16;;;;;;;3.88;1.70;;;;;;;10.94;100.00;100826.63;4958610;28;20034;-75
2023/07/04 00:56:01;;;;;;;2.60;1.77;;;;;;;10.96;100.00;100825.63;4946834;28;20038;-74
2023/07/04 00:58:48;;;;;;;4.43;2.30;;;;;;;10.99;100.00;100829.94;4942908;28;20084;-74
2023/07/04 01:01:34;;;;;;;4.22;1.95;;;;;;;11.03;100.00;100831.50;4958839;28;20265;-75
2023/07/04 01:04:20;;;;;;;2.88;1.63;;;;;;;11.04;100.00;100833.22;4959383;28;20073;-75
2023/07/04 01:07:31;;;;;;;2.40;1.95;;;;;;;11.08;100.00;100833.94;4943493;28;20997;-75
2023/07/04 01:10:42;;;;;;;2.55;1.70;;;;;;;11.09;100.00;100833.88;4957607;28;20156;-75
2023/07/04 01:13:28;;;;;;;2.85;1.70;;;;;;;11.12;100.00;100836.38;4957187;28;20046;-75
2023/07/04 01:16:16;;;;;;;2.92;1.70;;;;;;;11.14;100.00;100836.28;4961568;28;20046;-75
2023/07/04 01:19:02;;;;;;;2.70;1.92;;;;;;;11.15;100.00;100840.66;4958958;28;20057;-75
2023/07/04 01:21:50;;;;;;;3.67;1.73;;;;;;;11.14;100.00;100842.47;4957964;28;20042;-75
2023/07/04 01:24:48;;;;;;;2.85;1.90;;;;;;;11.15;100.00;100838.00;4957977;28;20038;-75
2023/07/04 01:27:35;;;;;;;4.32;2.03;;;;;;;11.17;100.00;100846.72;4956781;28;20034;-75
2023/07/04 01:30:22;;;;;;;3.25;2.03;;;;;;;11.16;100.00;100839.72;4959565;28;20053;-75
2023/07/04 01:33:08;;;;;;;7.43;1.95;;;;;;;11.14;100.00;100845.13;4957656;28;20057;-75
2023/07/04 01:35:54;;;;;;;3.85;1.75;;;;;;;11.13;100.00;100838.06;4961063;28;20746;-75
2023/07/04 01:38:40;;;;;;;4.53;1.92;;;;;;;11.13;100.00;100831.94;4957010;28;20461;-75
2023/07/04 01:41:30;;;;;;;2.67;1.70;;;;;;;11.16;100.00;100844.19;4960601;28;20113;-75
2023/07/04 01:44:16;;;;;;;4.90;2.10;;;;;;;11.16;100.00;100842.38;4944153;28;20050;-76
2023/07/04 01:47:02;;;;;;;3.92;1.95;;;;;;;11.16;100.00;100836.22;4961268;28;20051;-75
2023/07/04 01:49:48;;;;;;;3.45;1.90;;;;;;;11.19;100.00;100836.94;4960664;28;20047;-75
2023/07/04 01:52:33;;;;;;;4.05;2.00;;;;;;;11.20;100.00;100845.72;4957720;28;20038;-76
2023/07/04 01:55:19;;;;;;;5.38;1.75;;;;;;;11.22;100.00;100852.69;4944208;28;20426;-76
2023/07/04 01:58:05;;;;;;;2.38;1.50;;;;;;;11.24;100.00;100850.81;4946852;28;20051;-76
2023/07/04 02:00:51;;;;;;;3.05;1.63;;;;;;;11.27;100.00;100842.72;4959178;28;20165;-76
2023/07/04 02:03:37;;;;;;;4.35;2.10;;;;;;;11.31;100.00;100837.25;4959245;28;20540;-77
2023/07/04 02:06:23;;;;;;;2.45;1.60;;;;;;;11.33;100.00;100838.06;4959438;28;20039;-75
2023/07/04 02:09:09;;;;;;;6.20;1.70;;;;;;;11.36;100.00;100837.91;4951751;28;20066;-76
2023/07/04 02:11:54;;;;;;;2.20;1.38;;;;;;;11.37;100.00;100839.63;4944980;28;20046;-75
2023/07/04 02:14:41;;;;;;;2.83;1.30;;;;;;;11.36;100.00;100864.41;4945607;28;20094;-75
2023/07/04 02:17:30;;;;;;;1.77;1.20;;;;;;;11.33;100.00;100861.91;4946068;28;20055;-76
2023/07/04 02:20:16;;;;;;;2.83;1.13;;;;;;;11.24;100.00;100861.41;4944405;28;20472;-75
2023/07/04 02:23:02;;;;;;;4.50;1.50;;;;;;;11.05;100.00;100864.09;4946052;28;20122;-77
2023/07/04 02:25:48;;;;;;;3.97;1.30;;;;;;;10.71;100.00;100839.16;4945370;28;20054;-75
2023/07/04 02:28:36;;;;;;;1.20;1.10;;;;;;;10.43;100.00;100837.78;4944253;28;20042;-75
2023/07/04 02:31:23;;;;;;;1.58;1.30;;;;;;;10.24;100.00;100840.38;4946128;28;20055;-75
2023/07/04 02:34:09;;;;;;;4.82;1.08;;;;;;;10.18;100.00;100839.69;4943819;28;20197;-75
2023/07/04 02:36:55;;;;;;;1.33;1.05;;;;;;;10.15;100.00;100836.34;4944361;28;21987;-76
2023/07/04 02:39:41;;;;;;;2.00;1.23;;;;;;;10.14;100.00;100843.41;4941967;28;20792;-74
2023/07/04 02:42:27;;;;;;;3.05;1.25;;;;;;;10.14;100.00;100846.03;4944556;28;20520;-75
2023/07/04 02:45:12;;;;;;;1.90;1.20;;;;;;;10.14;100.00;100839.91;4928610;28;20039;-76
2023/07/04 02:47:58;;;;;;;2.47;1.38;;;;;;;10.13;100.00;100846.97;4933996;28;20050;-75
2023/07/04 02:50:44;;;;;;;2.42;1.48;;;;;;;10.13;100.00;100838.19;4943878;28;20036;-75
2023/07/04 02:53:30;;;;;;;4.72;1.80;;;;;;;10.13;100.00;100841.69;4941796;28;20054;-76
2023/07/04 02:56:16;;;;;;;4.13;1.60;;;;;;;10.13;100.00;100862.00;4942761;28;20055;-75
2023/07/04 02:59:02;;;;;;;3.10;1.63;;;;;;;10.15;100.00;100858.34;4942437;28;22032;-76
2023/07/04 03:01:50;;;;;;;2.92;1.70;;;;;;;10.17;100.00;100855.63;4942027;28;20071;-75
2023/07/04 03:04:36;;;;;;;5.25;1.50;;;;;;;10.22;100.00;100851.00;4943656;28;20049;-75
2023/07/04 03:07:22;;;;;;;5.78;1.63;;;;;;;10.25;100.00;100844.72;4942875;28;20150;-76
2023/07/04 03:10:08;;;;;;;2.83;1.40;;;;;;;10.25;100.00;100842.09;4957380;28;20058;-76
2023/07/04 03:12:54;;;;;;;3.28;1.48;;;;;;;10.24;100.00;100843.84;4957335;28;20145;-76
2023/07/04 03:15:40;;;;;;;1.77;1.42;;;;;;;10.22;100.00;100842.19;4958300;28;20052;-76
2023/07/04 03:18:26;;;;;;;2.15;1.10;;;;;;;10.15;100.00;100847.75;4956891;28;20039;-75
2023/07/04 03:21:12;;;;;;;1.98;1.20;;;;;;;10.11;100.00;100838.25;4958002;28;20053;-76
2023/07/04 03:23:59;;;;;;;3.08;0.90;;;;;;;10.07;100.00;100836.66;4956644;28;20104;-76
2023/07/04 03:26:45;;;;;;;2.83;1.20;;;;;;;10.01;100.00;100837.78;4956634;28;20061;-75
2023/07/04 03:29:30;;;;;;;0.90;0.90;;;;;;;9.99;100.00;100844.06;4958390;28;20117;-76
2023/07/04 03:32:16;;;;;;;1.00;0.90;;;;;;;9.98;100.00;100845.00;4957830;28;20052;-76
2023/07/04 03:35:03;;;;;;;0.90;0.88;;;;;;;9.96;100.00;100839.78;4956290;28;20044;-76
2023/07/04 03:37:48;;;;;;;1.63;1.00;;;;;;;9.95;100.00;100834.53;4959415;28;20037;-75
2023/07/04 03:40:34;;;;;;;1.48;0.90;;;;;;;9.92;100.00;100836.41;4959140;28;20049;-75
2023/07/04 03:43:21;;;;;;;2.45;1.20;;;;;;;9.93;100.00;100837.28;4947593;28;20666;-76
2023/07/04 03:46:07;;;;;;;3.35;1.30;;;;;;;9.95;100.00;100839.81;4959835;28;20042;-75
2023/07/04 03:48:53;;;;;;;2.28;1.20;;;;;;;9.97;100.00;100840.66;4948633;28;20775;-75
2023/07/04 03:51:39;;;;;;;1.40;1.30;;;;;;;9.98;100.00;100837.06;4958737;28;20039;-75
2023/07/04 03:54:24;;;;;;;2.00;1.20;;;;;;;9.99;100.00;100836.13;4956743;28;20997;-75
2023/07/04 03:57:11;;;;;;;2.35;1.10;;;;;;;9.99;100.00;100836.13;4957069;28;21029;-76
2023/07/04 04:00:00;;;;;;;1.40;1.30;;;;;;;10.04;100.00;100842.94;4959519;28;20758;-76
2023/07/04 04:02:46;;;;;;;2.85;1.15;;;;;;;10.08;100.00;100840.19;4961954;28;20034;-76
2023/07/04 04:05:32;;;;;;;1.65;1.38;;;;;;;10.10;100.00;100839.19;4962009;28;20038;-76
2023/07/04 04:08:18;;;;;;;1.60;1.25;;;;;;;10.13;100.00;100840.84;4959116;28;20063;-75
2023/07/04 04:11:03;;;;;;;1.42;1.05;;;;;;;10.12;100.00;100842.63;4962631;28;20058;-75
2023/07/04 04:13:52;;;;;;;1.77;1.30;;;;;;;10.16;100.00;100845.97;4947396;28;20575;-75
2023/07/04 04:16:38;;;;;;;4.32;1.40;;;;;;;10.19;100.00;100845.88;4960789;28;20073;-75
2023/07/04 04:19:24;;;;;;;1.98;1.42;;;;;;;10.23;100.00;100843.94;4961468;28;20100;-74
2023/07/04 04:22:10;;;;;;;2.17;1.15;;;;;;;10.26;100.00;100847.31;4961993;28;20046;-75
2023/07/04 04:24:56;;;;;;;1.65;1.13;;;;;;;10.31;100.00;100847.09;4961845;28;20041;-75
2023/07/04 04:27:46;;;;;;;4.63;1.42;;;;;;;10.38;100.00;100851.19;4960888;28;20042;-75
2023/07/04 04:30:31;;;;;;;1.88;1.23;;;;;;;10.46;100.00;100848.22;4962775;28;20133;-75
2023/07/04 04:33:20;;;;;;;3.60;1.45;;;;;;;10.54;100.00;100851.41;4961056;28;20047;-74
2023/07/04 04:36:06;;;;;;;2.47;1.30;;;;;;;10.62;100.00;100861.63;4959664;28;20086;-75
2023/07/04 04:38:51;;;;;;;3.53;1.45;;;;;;;10.70;100.00;100848.06;4957976;28;20039;-74
2023/07/04 04:41:37;;;;;;;3.00;1.40;;;;;;;10.78;100.00;100853.00;4959427;28;20042;-74
2023/07/04 04:44:23;;;;;;;3.55;1.42;;;;;;;10.86;100.00;100853.50;4962208;28;20153;-75
2023/07/04 04:47:09;;;;;;;2.13;1.30;;;;;;;10.93;100.00;100854.94;4960290;28;20102;-75
2023/07/04 04:49:56;;;;;;;2.55;1.67;;;;;;;11.00;100.00;100853.72;4963030;28;20031;-75
2023/07/04 04:52:43;;;;;;;4.35;1.40;;;;;;;11.08;100.00;100855.13;4944641;28;20077;-75
2023/07/04 04:55:31;;;;;;;5.88;1.98;;;;;;;11.15;100.00;100861.84;4963196;28;20044;-75
2023/07/04 04:58:18;;;;;;;5.47;1.35;;;;;;;11.22;100.00;100857.97;4960660;28;20052;-75
2023/07/04 05:01:16;;;;;;;5.53;2.13;;;;;;;11.28;100.00;100857.69;4945648;28;20066;-75
2023/07/04 05:04:02;;;;;;;3.10;1.65;;;;;;;11.36;100.00;100859.97;4961492;28;20052;-75
2023/07/04 05:06:48;;;;;;;4.28;1.55;;;;;;;11.43;100.00;100854.38;4959646;28;20046;-75
2023/07/04 05:09:33;;;;;;;4.70;1.42;;;;;;;11.47;100.00;100862.09;4960404;28;20126;-75
2023/07/04 05:12:22;;;;;;;3.55;1.50;;;;;;;11.51;100.00;100863.66;4945167;28;20134;-75
2023/07/04 05:15:08;;;;;;;5.75;1.48;;;;;;;11.57;100.00;100865.16;4959055;28;20043;-75
2023/07/04 05:17:54;;;;;;;4.15;1.50;;;;;;;11.63;100.00;100856.03;4959281;28;20070;-75
2023/07/04 05:20:40;;;;;;;3.97;1.20;;;;;;;11.68;100.00;100860.16;4944388;28;20117;-75
2023/07/04 05:23:26;;;;;;;2.17;1.13;;;;;;;11.77;100.00;100877.41;4959435;28;20543;-75
2023/07/04 05:26:23;;;;;;;2.17;1.23;;;;;;;11.87;100.00;100869.03;4947780;28;20047;-76
2023/07/04 05:29:08;;;;;;;3.50;1.25;;;;;;;11.97;100.00;100872.91;4958107;28;20506;-75
2023/07/04 05:31:54;;;;;;;1.35;1.15;;;;;;;12.04;100.00;100884.94;4959721;28;20042;-74
2023/07/04 05:34:46;;;;;;;3.45;1.20;;;;;;;12.11;100.00;100869.59;4959601;28;20107;-75
2023/07/04 05:37:31;;;;;;;2.55;1.27;;;;;;;12.18;100.00;100881.59;4957767;28;20043;-75
2023/07/04 05:40:17;;;;;;;3.95;1.30;;;;;;;12.25;100.00;100876.81;4942658;28;20050;-75
2023/07/04 05:43:03;;;;;;;3.45;1.30;;;;;;;12.29;100.00;100886.34;4957515;28;20038;-75
2023/07/04 05:45:50;;;;;;;3.30;1.40;;;;;;;12.36;100.00;100890.41;4956306;28;21280;-75
2023/07/04 05:48:36;;;;;;;4.72;1.10;;;;;;;12.50;100.00;100888.81;4957467;28;20037;-75
2023/07/04 05:51:23;;;;;;;4.60;1.40;;;;;;;12.62;100.00;100890.81;4946718;28;20039;-76
2023/07/04 05:54:08;;;;;;;2.17;1.10;;;;;;;12.69;100.00;100878.06;4940629;28;20043;-76
2023/07/04 05:56:55;;;;;;;2.75;1.10;;;;;;;12.72;100.00;100885.88;4944276;28;20034;-76
2023/07/04 05:59:41;;;;;;;2.55;1.20;;;;;;;12.79;100.00;100894.38;4956144;28;20160;-75
2023/07/04 06:02:28;;;;;;;4.88;1.20;;;;;;;12.85;100.00;100894.03;4939152;28;20112;-75
2023/07/04 06:05:13;;;;;;;1.30;1.10;;;;;;;12.90;100.00;100894.66;4959841;28;20094;-74
2023/07/04 06:07:59;;;;;;;3.35;0.98;;;;;;;12.94;100.00;100897.13;4959381;28;20050;-74
2023/07/04 06:10:45;;;;;;;3.20;1.42;;;;;;;13.01;100.00;100898.50;4957616;28;20069;-75
2023/07/04 06:13:31;;;;;;;3.78;1.20;;;;;;;13.04;100.00;100901.00;4957692;28;20190;-75
2023/07/04 06:16:17;;;;;;;3.70;1.27;;;;;;;13.12;100.00;100901.44;4957852;28;20119;-74
2023/07/04 06:19:06;;;;;;;4.65;1.30;;;;;;;13.20;100.00;100902.81;4958342;28;20039;-75
2023/07/04 06:21:52;;;;;;;4.20;1.30;;;;;;;13.28;100.00;100908.53;4956877;28;20429;-75
2023/07/04 06:24:38;;;;;;;1.75;1.05;;;;;;;13.34;100.00;100905.53;4958186;28;20038;-75
2023/07/04 06:27:24;;;;;;;0.90;0.90;;;;;;;13.39;100.00;100916.78;4945142;28;20153;-75
2023/07/04 06:30:14;;;;;;;3.10;1.35;;;;;;;13.46;100.00;100913.81;4961515;28;20047;-75
2023/07/04 06:33:01;;;;;;;2.70;1.10;;;;;;;13.49;100.00;100921.63;4945262;28;20034;-74
2023/07/04 06:35:47;;;;;;;2.35;1.10;;;;;;;13.50;100.00;100918.88;4961153;28;20438;-75
2023/07/04 06:38:32;;;;;;;4.85;1.10;;;;;;;13.51;100.00;100920.59;4958764;28;20041;-74
2023/07/04 06:41:22;;;;;;;4.18;1.40;;;;;;;13.54;100.00;100931.06;4958603;28;20053;-75
2023/07/04 06:44:08;;;;;;;2.80;1.40;;;;;;;13.57;100.00;100932.69;4957879;28;20047;-73
2023/07/04 06:46:54;;;;;;;1.58;1.00;;;;;;;13.59;100.00;100936.13;4949911;28;20046;-75
2023/07/04 06:49:40;;;;;;;2.10;1.20;;;;;;;13.69;100.00;100931.97;4956631;28;20054;-75
2023/07/04 06:52:25;;;;;;;4.63;1.20;;;;;;;13.85;100.00;100944.41;4947349;28;20046;-76
2023/07/04 06:55:11;;;;;;;2.63;1.00;;;;;;;13.95;100.00;100942.91;4955411;28;20047;-75
2023/07/04 06:58:04;;;;;;;4.30;1.27;;;;;;;14.02;100.00;100942.56;4955264;28;20533;-75
2023/07/04 07:01:02;;;;;;;2.55;1.00;;;;;;;14.04;100.00;100941.53;4958596;28;20055;-76
2023/07/04 07:03:49;;;;;;;4.65;1.25;;;;;;;14.05;100.00;100940.59;4942947;28;20045;-75
2023/07/04 07:06:35;;;;;;;1.20;0.98;;;;;;;14.11;100.00;100947.38;4943392;28;20047;-75
2023/07/04 07:09:21;;;;;;;2.95;0.90;;;;;;;14.16;100.00;100953.25;4957195;28;20107;-74
2023/07/04 07:12:15;;;;;;;2.05;0.70;;;;;;;14.30;100.00;100962.22;4961391;28;20062;-75
2023/07/04 07:15:01;;;;;;;3.40;1.00;;;;;;;14.34;100.00;100953.97;4959033;28;20035;-76
2023/07/04 07:17:47;;;;;;;2.97;0.80;;;;;;;14.37;100.00;100963.59;4959048;28;20081;-75
2023/07/04 07:20:33;;;;;;;2.72;1.08;;;;;;;14.38;100.00;100970.63;4959005;28;20053;-77
2023/07/04 07:23:18;;;;;;;3.05;1.10;;;;;;;14.37;100.00;100969.78;4959544;28;20041;-77
2023/07/04 07:26:06;;;;;;;2.22;0.90;;;;;;;14.40;100.00;100974.91;4958403;28;20038;-75
2023/07/04 07:28:52;;;;;;;2.85;0.90;;;;;;;14.50;100.00;100975.22;4958148;28;20034;-77
2023/07/04 07:31:43;;;;;;;2.95;0.90;;;;;;;14.61;100.00;100977.22;4958672;28;20034;-74
2023/07/04 07:34:29;;;;;;;3.08;0.95;;;;;;;14.76;100.00;100975.47;4960048;28;20031;-75
2023/07/04 07:37:19;;;;;;;4.70;1.20;;;;;;;14.82;100.00;100981.41;4960257;28;20038;-76
2023/07/04 07:40:05;;;;;;;3.38;1.00;;;;;;;14.91;100.00;100980.81;4961112;28;20627;-77
2023/07/04 07:42:54;;;;;;;1.67;1.00;;;;;;;14.96;100.00;100969.88;4956274;28;20038;-75
2023/07/04 07:45:40;;;;;;;1.63;0.82;;;;;;;15.01;100.00;100975.78;4962778;28;20027;-76
2023/07/04 07:48:26;;;;;;;3.08;1.27;;;;;;;14.99;100.00;100975.03;4958652;28;20065;-75
2023/07/04 07:51:13;;;;;;;5.50;1.30;;;;;;;15.03;100.00;100985.41;4960258;28;20039;-76
2023/07/04 07:54:00;;;;;;;3.47;1.05;;;;;;;15.10;100.00;100993.00;4961425;28;20057;-75
2023/07/04 07:56:48;;;;;;;3.00;1.15;;;;;;;15.13;100.00;100993.69;4959875;28;20612;-75
2023/07/04 07:59:34;;;;;;;5.03;1.10;;;;;;;15.17;100.00;100995.22;4959705;28;20042;-78
2023/07/04 08:02:19;;;;;;;3.45;1.70;;;;;;;15.20;100.00;100988.84;4962436;28;20508;-76
2023/07/04 08:05:05;;;;;;;3.15;1.33;;;;;;;15.25;100.00;100999.22;4956549;28;20524;-76
2023/07/04 08:07:51;;;;;;;6.32;1.65;;;;;;;15.31;100.00;101001.50;4961084;28;20050;-76
2023/07/04 08:10:39;;;;;;;4.65;1.33;;;;;;;15.37;100.00;100990.44;4958209;28;20117;-75
2023/07/04 08:13:24;;;;;;;4.82;1.50;;;;;;;15.38;100.00;100985.94;4944494;28;20030;-74
2023/07/04 08:16:11;;;;;;;3.78;1.38;;;;;;;15.38;100.00;100999.28;4946136;28;20035;-75
2023/07/04 08:18:59;;;;;;;5.70;1.52;;;;;;;15.32;100.00;101004.03;4956858;28;20130;-76
2023/07/04 08:21:45;;;;;;;4.07;1.60;;;;;;;15.31;100.00;100990.81;4942566;28;20035;-75
2023/07/04 08:24:33;;;;;;;2.97;1.27;;;;;;;15.27;100.00;101000.81;4926403;28;20043;-75
2023/07/04 08:27:19;;;;;;;4.50;1.50;;;;;;;15.21;100.00;100998.53;4943250;28;20126;-76
2023/07/04 08:30:06;;;;;;;2.70;1.42;;;;;;;15.29;100.00;101006.91;4931074;28;20126;-75
2023/07/04 08:32:53;;;;;;;4.38;1.55;;;;;;;15.43;100.00;101010.53;4942736;28;20771;-78
2023/07/04 08:35:39;;;;;;;6.22;1.38;;;;;;;15.65;100.00;101006.47;4943955;28;20038;-77
2023/07/04 08:38:25;;;;;;;6.28;1.27;;;;;;;15.83;100.00;101007.09;4942737;28;20042;-78
2023/07/04 08:41:33;;;;;;;5.78;1.70;;;;;;;15.96;100.00;101005.34;4939249;28;20496;-76
2023/07/04 08:44:21;;;;;;;3.38;1.08;;;;;;;16.03;100.00;101021.84;4942520;28;20035;-76
2023/07/04 08:47:08;;;;;;;5.30;1.45;;;;;;;16.08;100.00;101019.69;4943529;28;20565;-76
2023/07/04 08:50:03;;;;;;;4.28;1.20;;;;;;;16.24;100.00;101024.88;4942333;28;20133;-76
2023/07/04 08:53:11;;;;;;;3.60;1.27;;;;;;;16.59;100.00;101026.16;4939743;28;20190;-76
2023/07/04 08:56:05;;;;;;;3.90;1.20;;;;;;;16.94;100.00;101030.03;4928648;28;20035;-79
2023/07/04 08:59:21;;;;;;;6.13;1.25;;;;;;;17.05;100.00;101019.47;4936928;28;20550;-77
2023/07/04 09:02:16;;;;;;;4.05;1.30;;;;;;;17.06;100.00;101039.06;4943065;28;20150;-74
2023/07/04 09:05:13;;;;;;;2.30;1.25;;;;;;;17.02;100.00;101033.06;4955950;28;20098;-75
2023/07/04 09:08:22;;;;;;;4.75;1.42;;;;;;;17.15;100.00;101043.75;4942422;28;20109;-77
2023/07/04 09:11:11;;;;;;;2.47;1.00;;;;;;;17.04;100.00;101063.22;4962145;28;20492;-76
2023/07/04 09:13:59;;;;;;;5.05;1.48;;;;;;;16.93;100.00;101034.53;4962997;28;20043;-77
2023/07/04 09:16:48;;;;;;;6.85;1.27;;;;;;;16.88;100.00;101039.31;4961877;28;20049;-75
2023/07/04 09:19:40;;;;;;;3.92;1.38;;;;;;;16.97;100.00;101056.56;4949101;28;22598;-76
2023/07/04 09:22:26;;;;;;;3.22;1.30;;;;;;;17.26;100.00;101053.69;4963156;28;20057;-77
2023/07/04 09:25:11;;;;;;;1.77;1.30;;;;;;;17.42;100.00;101050.78;4939516;28;20149;-77
2023/07/04 09:27:58;;;;;;;1.58;0.93;;;;;;;17.55;100.00;101052.59;4960713;28;20056;-77
2023/07/04 09:30:44;;;;;;;2.88;1.13;;;;;;;17.44;99.91;101059.53;4964009;28;20120;-78
2023/07/04 09:33:30;;;;;;;2.00;0.93;;;;;;;17.38;100.00;101060.00;4962648;28;20485;-76
2023/07/04 09:36:17;;;;;;;3.88;0.93;;;;;;;17.52;100.00;101064.38;4956571;28;20042;-76
2023/07/04 09:39:04;;;;;;;2.35;0.85;;;;;;;17.59;98.72;101067.47;4962374;28;20042;-77
2023/07/04 09:42:00;;;;;;;2.50;0.90;;;;;;;17.61;96.57;101073.56;4962146;28;20062;-75
2023/07/04 09:44:46;;;;;;;5.50;1.10;;;;;;;17.31;96.49;101070.28;4963659;28;20129;-77
2023/07/04 09:47:33;;;;;;;4.18;1.30;;;;;;;17.17;97.76;101073.06;4961578;28;20046;-77
2023/07/04 09:50:31;;;;;;;5.35;1.30;;;;;;;17.27;95.22;101079.47;4961723;28;20093;-76
2023/07/04 09:53:18;;;;;;;7.20;1.02;;;;;;;17.41;98.34;101086.53;4962869;28;20035;-76
2023/07/04 09:56:05;;;;;;;3.67;1.33;;;;;;;17.67;98.56;101081.16;4959863;28;20074;-76
2023/07/04 09:59:24;;;;;;;7.15;1.50;;;;;;;17.91;96.21;101077.66;4962720;28;20129;-77
2023/07/04 10:02:25;;;;;;;3.40;1.10;;;;;;;18.12;97.51;101082.44;4962462;28;20070;-76
2023/07/04 10:05:30;;;;;;;2.83;1.33;;;;;;;17.90;94.23;101086.66;4963372;28;20053;-77
2023/07/04 10:08:19;;;;;;;4.68;1.50;;;;;;;17.64;97.22;101084.91;4961289;28;20052;-76
2023/07/04 10:11:06;;;;;;;4.22;1.20;;;;;;;17.50;97.31;101085.03;4963788;28;20047;-76
2023/07/04 10:14:01;;;;;;;8.00;1.50;;;;;;;17.56;99.80;101079.25;4949304;28;20139;-78
2023/07/04 10:16:50;;;;;;;5.95;1.58;;;;;;;17.69;95.80;101084.56;4961029;28;20413;-77
2023/07/04 10:19:42;;;;;;;4.63;1.13;;;;;;;17.72;93.59;101084.38;4964762;28;20286;-75
2023/07/04 10:22:38;;;;;;;3.17;1.10;;;;;;;17.93;93.69;101089.13;4944700;28;20470;-74
2023/07/04 10:25:30;;;;;;;5.93;1.55;;;;;;;18.13;92.94;101086.81;4949290;28;20129;-79
2023/07/04 10:28:17;;;;;;;5.15;1.10;;;;;;;18.09;93.31;101088.84;4958034;28;20043;-77
2023/07/04 10:31:11;;;;;;;7.25;1.40;;;;;;;18.19;93.07;101089.03;4949854;28;20041;-75
2023/07/04 10:34:01;;;;;;;4.38;1.30;;;;;;;18.25;93.06;101095.78;4960159;28;20039;-78
2023/07/04 10:36:49;;;;;;;5.45;1.30;;;;;;;18.11;91.35;101107.50;4963537;28;20038;-75
2023/07/04 10:39:39;;;;;;;6.35;1.00;;;;;;;18.05;91.06;101096.28;4954365;28;20057;-77
2023/07/04 10:42:33;;;;;;;1.58;1.05;;;;;;;18.22;91.07;101096.00;4959696;28;20492;-76
2023/07/04 10:45:22;;;;;;;3.92;1.05;;;;;;;18.30;90.10;101099.81;4954795;28;20031;-77
2023/07/04 10:48:12;;;;;;;2.90;1.10;;;;;;;18.55;89.09;101098.00;4947754;28;20061;-76
2023/07/04 10:51:21;;;;;;;3.88;1.13;;;;;;;18.63;85.43;101112.66;4964535;28;20050;-76
2023/07/04 10:54:08;;;;;;;4.93;1.20;;;;;;;18.61;88.78;101110.06;4965346;28;20042;-77
2023/07/04 10:57:20;;;;;;;5.70;1.20;;;;;;;18.50;87.64;101116.25;4966916;28;20049;-75
2023/07/04 11:00:39;;;;;;;4.40;1.35;;;;;;;18.39;84.37;101109.00;4962386;28;20061;-76
2023/07/04 11:03:39;;;;;;;4.10;1.58;;;;;;;18.35;87.97;101112.03;4962602;28;20120;-76
2023/07/04 11:06:55;;;;;;;3.08;0.80;;;;;;;18.40;85.41;101121.44;4964379;28;20097;-75
2023/07/04 11:09:45;;;;;;;2.72;1.23;;;;;;;18.24;88.36;101119.03;4950565;28;20077;-76
2023/07/04 11:12:33;;;;;;;4.38;1.20;;;;;;;18.27;88.61;101121.50;4950146;28;20689;-76
2023/07/04 11:15:27;;;;;;;4.57;1.23;;;;;;;18.29;85.71;101116.00;4965673;28;20086;-77
2023/07/04 11:18:16;;;;;;;4.30;1.00;;;;;;;18.46;88.17;101120.13;4951725;28;20042;-75
2023/07/04 11:21:07;;;;;;;2.63;1.00;;;;;;;18.31;84.90;101120.28;4947739;28;20034;-77
2023/07/04 11:24:07;;;;;;;3.22;1.10;;;;;;;18.30;86.46;101115.91;4963085;28;20967;-76
2023/07/04 11:27:09;;;;;;;5.50;1.30;;;;;;;18.16;81.96;101130.34;4951947;28;20034;-78
2023/07/04 11:29:57;;;;;;;5.65;1.30;;;;;;;17.98;86.34;101127.13;4963433;28;20497;-77
2023/07/04 11:32:54;;;;;;;2.30;1.10;;;;;;;17.97;85.87;101130.78;4961424;28;20046;-78
2023/07/04 11:35:41;;;;;;;4.38;1.50;;;;;;;17.89;86.64;101136.69;4956347;28;20046;-78
2023/07/04 11:38:30;;;;;;;4.80;1.13;;;;;;;18.03;86.52;101133.00;4961788;28;20046;-76
2023/07/04 11:41:16;;;;;;;4.68;1.45;;;;;;;18.15;85.92;101125.09;4959164;28;20094;-76
2023/07/04 11:44:12;;;;;;;3.17;1.23;;;;;;;18.27;85.98;101132.22;4950376;28;20409;-77
2023/07/04 11:47:07;;;;;;;5.38;1.10;;;;;;;18.28;86.13;101141.97;4961757;28;20051;-77
2023/07/04 11:49:55;;;;;;;2.13;1.00;;;;;;;18.27;86.74;101137.59;4955700;28;20263;-76
2023/07/04 11:52:44;;;;;;;6.72;1.20;;;;;;;18.49;86.87;101145.84;4961369;28;20074;-78
2023/07/04 11:55:32;;;;;;;4.80;1.30;;;;;;;18.64;86.21;101143.84;4959543;28;20106;-78
2023/07/04 11:58:18;;;;;;;4.63;1.17;;;;;;;18.54;84.49;101141.88;4962103;28;20038;-77
2023/07/04 12:01:04;;;;;;;4.68;1.38;;;;;;;18.49;85.30;101151.19;4959975;28;20427;-76
2023/07/04 12:04:03;;;;;;;2.08;0.98;;;;;;;18.35;85.74;101153.06;4957927;28;20038;-77
2023/07/04 12:07:09;;;;;;;3.95;1.33;;;;;;;18.38;84.49;101138.59;4961005;28;20039;-78
2023/07/04 12:10:01;;;;;;;5.18;1.45;;;;;;;18.67;86.36;101148.97;4959023;28;20047;-77
2023/07/04 12:12:56;;;;;;;1.85;1.00;;;;;;;18.91;85.75;101146.25;4961370;28;20121;-75
2023/07/04 12:15:50;;;;;;;4.07;1.15;;;;;;;19.06;81.76;101154.16;4963752;28;20167;-79
2023/07/04 12:18:39;;;;;;;5.97;1.10;;;;;;;18.98;83.15;101146.66;4944966;28;20047;-77
2023/07/04 12:21:29;;;;;;;3.42;1.10;;;;;;;19.09;82.59;101137.81;4961237;28;20515;-79
2023/07/04 12:24:20;;;;;;;5.30;1.60;;;;;;;19.25;82.34;101150.88;4959554;28;20051;-78
2023/07/04 12:27:07;;;;;;;3.38;1.23;;;;;;;19.32;81.42;101146.75;4950508;28;20042;-78
2023/07/04 12:29:52;;;;;;;4.75;1.45;;;;;;;19.11;80.94;101151.94;4941965;28;20049;-79
2023/07/04 12:32:39;;;;;;;4.68;1.25;;;;;;;19.06;80.93;101149.63;4949430;28;20073;-77
2023/07/04 12:35:30;;;;;;;6.95;1.45;;;;;;;19.13;83.14;101153.53;4959719;28;20057;-77
2023/07/04 12:38:17;;;;;;;3.30;1.08;;;;;;;19.01;81.01;101159.81;4944809;28;20490;-77
2023/07/04 12:41:03;;;;;;;7.35;1.30;;;;;;;19.09;81.39;101153.91;4948719;28;20133;-82
2023/07/04 12:44:02;;;;;;;2.63;1.10;;;;;;;19.14;79.92;101162.47;4949394;28;20054;-83
2023/07/04 12:46:48;;;;;;;4.40;1.20;;;;;;;19.24;79.08;101151.88;4957887;28;20039;-78
2023/07/04 12:49:36;;;;;;;2.78;1.13;;;;;;;19.29;77.29;101164.94;4948013;28;20580;-74
2023/07/04 12:52:30;;;;;;;4.15;1.10;;;;;;;19.13;77.94;101166.97;4961315;28;20038;-77
2023/07/04 12:55:21;;;;;;;5.25;0.90;;;;;;;19.17;79.79;101164.06;4960464;28;20581;-83
2023/07/04 12:58:07;;;;;;;5.30;1.10;;;;;;;19.08;81.07;101158.44;4960512;28;20038;-78
2023/07/04 13:00:57;;;;;;;4.53;1.13;;;;;;;19.12;80.39;101167.09;4959276;28;20049;-77